FPK weather

Fitch H Beach Airport
Charlotte, Michigan, United States

Public forecast

Using degrees Fahrenheit for public forecast. Weather courtesy of forecast.io.

METAR (pilot weather report)

Retrieved 2019/05/24 06:36 UTC (22 minutes ago):

KFPK 240636Z AUTO 00000KT 10SM CLR 10/09 A3007 RMK AO2 T00950090

TAF (pilot weather forecast)

Closest forecast is Capital City Airport, 15.8 nm (29.2 km) NE. Retrieved 2019/05/24 06:24 UTC (34 minutes ago):

TAF KLAN 240521Z 2406/2506 24004KT P6SM SKC FM241000 00000KT P6SM BKN150 FM241500 10004KT P6SM VCSH OVC090 FM242300 13010KT P6SM VCSH BKN040 FM250500 16012KT 6SM -SHRA BR VCTS OVC025CB